SBOSBO TRN / LIMF
Speedbird OnlineSpeedbird Online TRN / LIMF

Turin Airport
14:28 24.1°C

Location Torino, Italy
Latitude: 45.200802
Longitude: 7.64963
Local Time 14:29 on 12 Apr 2024
UTC +2 hours (Europe/Rome)
Currency £1 equals EUR 1.17
METAR LIMF 121150Z 12003KT 080V250 CAVOK 23/11 Q1030
TAF TAF LIMF 121100Z 1212/1312 VRB05KT CAVOK TEMPO 1300/1307 3000 BR
Weather As Of 12 Apr 2024 14:29
Description Clear sky
Wind 6 km/h from South-East (120°)
Cloud Cover 0%
Precipitation Rain: none, Snow: none
Sunrise 06:49
Sunset 20:10
NOTAM 33 active NOTAM
Rotations During the last 90 days there were
125 flights from LGW
11 flights from LHR
125 flights to LGW
11 flights to LHR
Lounges Piemonte Lounge , Main Terminal
Web Airport Website | Wikipedia
Codes IATA: TRN
ICAO: LIMF
Altitude 301 Meter / 989 Feet
Distance 893 KM / 555 Miles
from London.
Runways
RunwayLength (m)Surface
183300Asphalt
363300Asphalt
Radio
TypeDescriptionFrequency
APPAPP129.275
APPAPP23.44
ATISATIS120.475
GNDGND121.7
TWRTWR118.5
Live ATC



Support Speedbird Online

© 2017-2024 Speedbird Online